createdAt,value
2023-05-21T00:00:41.338Z,10.02
2023-05-21T00:05:39.871Z,9.65
2023-05-21T00:10:36.220Z,8.45
2023-05-21T00:15:32.483Z,8.73
2023-05-21T00:20:29.338Z,8.57
2023-05-21T00:25:25.807Z,8.57
2023-05-21T00:30:22.080Z,8.25
2023-05-21T00:35:18.423Z,7.05
2023-05-21T00:40:15.184Z,9.45
2023-05-21T00:45:11.473Z,7.93
2023-05-21T00:50:08.539Z,8.65
2023-05-21T00:55:05.124Z,5.60
2023-05-21T01:00:01.437Z,6.82
2023-05-21T01:04:57.677Z,7.88
2023-05-21T01:09:54.286Z,5.95
2023-05-21T01:14:51.382Z,10.27
2023-05-21T01:19:47.937Z,6.80
2023-05-21T01:24:47.800Z,7.55
2023-05-21T01:29:44.096Z,9.55
2023-05-21T01:34:44.173Z,7.03
2023-05-21T01:39:42.314Z,7.78
2023-05-21T01:44:39.925Z,8.23
2023-05-21T01:49:36.348Z,7.88
2023-05-21T01:54:32.643Z,9.35
2023-05-21T01:59:29.968Z,9.43
2023-05-21T02:04:26.288Z,10.32
2023-05-21T02:09:22.621Z,6.75
2023-05-21T02:14:20.483Z,7.45
2023-05-21T02:19:17.378Z,7.57
2023-05-21T02:24:13.842Z,7.10
2023-05-21T02:29:10.160Z,9.45
2023-05-21T02:34:07.994Z,10.75
2023-05-21T02:39:04.310Z,7.50
2023-05-21T02:44:00.588Z,10.77
2023-05-21T02:48:56.835Z,8.60
2023-05-21T02:53:53.141Z,8.85
2023-05-21T02:58:49.423Z,6.80
2023-05-21T03:03:45.781Z,9.38
2023-05-21T03:08:42.019Z,10.65
2023-05-21T03:13:38.287Z,9.43
2023-05-21T03:18:34.540Z,8.82
2023-05-21T03:23:32.008Z,9.35
2023-05-21T03:28:28.302Z,8.48
2023-05-21T03:33:24.774Z,10.18
2023-05-21T03:38:21.048Z,9.82
2023-05-21T03:43:17.350Z,8.13
2023-05-21T03:48:13.773Z,9.18
2023-05-21T03:53:10.840Z,10.55
2023-05-21T03:58:07.090Z,8.10
2023-05-21T04:03:07.210Z,8.15
2023-05-21T04:08:03.609Z,8.57
2023-05-21T04:12:59.923Z,8.52
2023-05-21T04:17:56.938Z,9.90
2023-05-21T04:22:53.367Z,7.18
2023-05-21T04:27:50.095Z,7.05
2023-05-21T04:32:48.113Z,10.30
2023-05-21T04:37:45.896Z,12.05
2023-05-21T04:42:42.270Z,9.88
2023-05-21T04:47:38.714Z,9.80
2023-05-21T04:52:35.075Z,9.13
2023-05-21T04:57:31.408Z,10.68
2023-05-21T05:02:27.719Z,16.38
2023-05-21T05:07:24.189Z,9.70
2023-05-21T05:12:20.516Z,8.65
2023-05-21T05:17:16.821Z,8.68
2023-05-21T05:22:13.703Z,10.13
2023-05-21T05:27:10.039Z,10.02
2023-05-21T05:32:06.581Z,10.30
2023-05-21T05:37:04.201Z,9.70
2023-05-21T05:42:00.552Z,13.25
2023-05-21T05:46:56.811Z,9.13
2023-05-21T05:51:53.092Z,16.02
2023-05-21T05:56:49.394Z,11.70
2023-05-21T06:01:45.699Z,11.43
2023-05-21T06:06:42.010Z,9.52
2023-05-21T06:11:38.452Z,8.20
2023-05-21T06:16:34.920Z,9.55
2023-05-21T06:21:31.200Z,13.43
2023-05-21T06:26:27.495Z,10.45
2023-05-21T06:31:24.538Z,16.63
2023-05-21T06:36:21.546Z,10.02
2023-05-21T06:41:17.827Z,13.48
2023-05-21T06:46:16.461Z,12.15
2023-05-21T06:51:12.768Z,12.55
2023-05-21T06:56:09.090Z,11.63
2023-05-21T07:01:05.867Z,11.68
2023-05-21T07:06:02.248Z,11.05
2023-05-21T07:10:58.572Z,10.43
2023-05-21T07:15:54.973Z,15.32
2023-05-21T07:20:51.306Z,8.80
2023-05-21T07:25:47.704Z,10.75
2023-05-21T07:30:44.026Z,10.70
2023-05-21T07:35:40.852Z,14.90
2023-05-21T07:40:40.397Z,13.05
2023-05-21T07:45:36.895Z,12.85
2023-05-21T07:50:37.649Z,12.73
2023-05-21T07:55:33.929Z,9.82
2023-05-21T08:00:41.856Z,14.75
2023-05-21T08:05:38.439Z,10.35
2023-05-21T08:10:35.011Z,12.00
2023-05-21T08:15:31.279Z,14.25
2023-05-21T08:20:27.929Z,12.60
2023-05-21T08:25:24.390Z,12.88
2023-05-21T08:30:20.933Z,16.17
2023-05-21T08:35:20.435Z,20.75
2023-05-21T08:40:16.738Z,15.45
2023-05-21T08:45:14.137Z,17.23
2023-05-21T08:50:11.586Z,12.75
2023-05-21T08:55:08.695Z,14.70
2023-05-21T09:00:06.229Z,12.48
2023-05-21T09:05:03.721Z,13.70
2023-05-21T09:10:05.645Z,14.13
2023-05-21T09:15:02.267Z,18.08
2023-05-21T09:20:07.950Z,13.80
2023-05-21T09:25:04.733Z,12.95
2023-05-21T09:30:11.753Z,11.68
2023-05-21T09:35:09.607Z,12.93
2023-05-21T09:40:10.102Z,13.02
2023-05-21T09:45:09.730Z,17.60
2023-05-21T09:50:06.523Z,17.13
2023-05-21T09:55:03.516Z,14.52
2023-05-21T09:59:59.893Z,14.55
2023-05-21T10:04:57.072Z,13.93
2023-05-21T10:09:55.735Z,15.32
2023-05-21T10:14:59.285Z,16.45
2023-05-21T10:20:00.383Z,15.23
2023-05-21T10:24:57.506Z,14.40
2023-05-21T10:29:54.219Z,16.73
2023-05-21T10:34:52.195Z,14.45
2023-05-21T10:39:50.419Z,16.23
2023-05-21T10:44:58.845Z,12.85
2023-05-21T10:50:01.451Z,13.93
2023-05-21T10:55:01.905Z,12.15
2023-05-21T10:59:58.381Z,14.38
2023-05-21T11:05:01.121Z,13.07
2023-05-21T11:10:17.380Z,11.77
2023-05-21T11:15:16.231Z,12.63
2023-05-21T11:20:15.734Z,12.60
2023-05-21T11:25:12.472Z,11.82
2023-05-21T11:30:09.794Z,10.98
2023-05-21T11:35:07.617Z,12.48
2023-05-21T11:40:16.744Z,12.75
2023-05-21T11:45:16.958Z,14.70
2023-05-21T11:50:14.448Z,11.50
2023-05-21T11:55:11.369Z,10.95
2023-05-21T12:00:14.098Z,13.25
2023-05-21T12:05:12.500Z,12.85
2023-05-21T12:10:09.753Z,12.55
2023-05-21T12:15:06.889Z,15.68
2023-05-21T12:20:07.677Z,12.57
2023-05-21T12:25:04.247Z,9.67
2023-05-21T12:30:00.538Z,11.50
2023-05-21T12:34:56.879Z,12.45
2023-05-21T12:39:54.024Z,12.30
2023-05-21T12:44:52.066Z,12.13
2023-05-21T12:49:48.435Z,12.13
2023-05-21T12:54:46.007Z,12.15
2023-05-21T12:59:49.405Z,14.82
2023-05-21T13:04:45.838Z,12.00
2023-05-21T13:09:42.275Z,11.80
2023-05-21T13:14:38.985Z,14.82
2023-05-21T13:19:35.283Z,12.13
2023-05-21T13:24:31.609Z,9.98
2023-05-21T13:29:27.934Z,13.40
2023-05-21T13:34:25.545Z,14.85
2023-05-21T13:39:26.618Z,11.38
2023-05-21T13:44:22.972Z,10.23
2023-05-21T13:49:19.231Z,14.65
2023-05-21T13:54:15.902Z,11.50
2023-05-21T13:59:12.163Z,11.20
2023-05-21T14:04:08.421Z,13.63
2023-05-21T14:09:04.705Z,11.40
2023-05-21T14:14:01.333Z,13.57
2023-05-21T14:18:57.680Z,14.20
2023-05-21T14:23:54.076Z,10.25
2023-05-21T14:28:50.343Z,10.00
2023-05-21T14:33:46.646Z,10.18
2023-05-21T14:38:44.985Z,10.18
2023-05-21T14:43:41.297Z,10.02
2023-05-21T14:48:37.646Z,9.98
2023-05-21T14:53:33.927Z,12.48
2023-05-21T14:58:30.278Z,8.57
2023-05-21T15:03:26.675Z,11.10
2023-05-21T15:08:22.992Z,10.70
2023-05-21T15:13:22.396Z,10.75
2023-05-21T15:18:18.718Z,11.35
2023-05-21T15:23:17.749Z,9.43
2023-05-21T15:28:14.290Z,10.63
2023-05-21T15:33:11.093Z,13.50
2023-05-21T15:38:07.388Z,9.90
2023-05-21T15:43:03.808Z,9.60
2023-05-21T15:48:00.174Z,9.43
2023-05-21T15:52:56.452Z,10.80
2023-05-21T15:57:52.769Z,10.02
2023-05-21T16:02:49.129Z,14.43
2023-05-21T16:07:46.133Z,9.10
2023-05-21T16:12:42.424Z,10.48
2023-05-21T16:17:38.728Z,10.38
2023-05-21T16:22:35.014Z,11.52
2023-05-21T16:27:31.284Z,11.82
2023-05-21T16:32:30.882Z,9.60
2023-05-21T16:37:27.203Z,10.57
2023-05-21T16:42:23.913Z,9.25
2023-05-21T16:47:20.371Z,10.70
2023-05-21T16:52:16.740Z,10.88
2023-05-21T16:57:12.987Z,10.48
2023-05-21T17:02:11.831Z,10.18
2023-05-21T17:07:08.161Z,9.40
2023-05-21T17:12:04.484Z,12.10
2023-05-21T17:17:00.764Z,9.55
2023-05-21T17:21:57.245Z,10.60
2023-05-21T17:26:53.802Z,9.15
2023-05-21T17:31:50.281Z,10.52
2023-05-21T17:36:46.703Z,8.93
2023-05-21T17:41:42.961Z,9.90
2023-05-21T17:46:39.297Z,10.25
2023-05-21T17:51:35.906Z,9.25
2023-05-21T17:56:38.581Z,11.32
2023-05-21T18:01:36.916Z,11.30
2023-05-21T18:06:33.217Z,10.05
2023-05-21T18:11:29.745Z,9.85
2023-05-21T18:16:26.011Z,10.55
2023-05-21T18:21:24.676Z,10.65
2023-05-21T18:26:22.028Z,10.88
2023-05-21T18:31:19.054Z,10.73
2023-05-21T18:36:15.501Z,10.43
2023-05-21T18:41:11.774Z,10.65
2023-05-21T18:46:08.264Z,11.60
2023-05-21T18:51:04.591Z,17.42
2023-05-21T18:56:00.865Z,12.27
2023-05-21T19:00:57.161Z,11.38
2023-05-21T19:05:53.383Z,11.55
2023-05-21T19:10:50.022Z,18.52
2023-05-21T19:15:47.995Z,12.38
2023-05-21T19:20:44.296Z,12.13
2023-05-21T19:25:43.330Z,12.85
2023-05-21T19:30:39.892Z,12.10
2023-05-21T19:35:37.786Z,12.57
2023-05-21T19:40:34.112Z,12.32
2023-05-21T19:45:30.479Z,15.75
2023-05-21T19:50:28.506Z,13.85
2023-05-21T19:55:25.025Z,13.02
2023-05-21T20:00:21.394Z,15.73
2023-05-21T20:05:19.888Z,14.13
2023-05-21T20:10:16.189Z,14.82
2023-05-21T20:15:14.331Z,14.43
2023-05-21T20:20:11.713Z,15.52
2023-05-21T20:25:08.746Z,14.27
2023-05-21T20:30:06.501Z,14.55
2023-05-21T20:35:04.005Z,15.10
2023-05-21T20:40:00.540Z,14.05
2023-05-21T20:44:59.785Z,14.88
2023-05-21T20:49:59.557Z,16.63
2023-05-21T20:54:56.560Z,17.95
2023-05-21T20:59:53.272Z,17.17
2023-05-21T21:04:50.528Z,14.75
2023-05-21T21:09:47.234Z,15.35
2023-05-21T21:14:43.553Z,14.95
2023-05-21T21:19:40.093Z,15.40
2023-05-21T21:24:36.368Z,16.02
2023-05-21T21:29:32.820Z,16.17
2023-05-21T21:34:29.271Z,15.95
2023-05-21T21:39:26.752Z,15.88
2023-05-21T21:44:23.240Z,15.90
2023-05-21T21:49:19.745Z,15.50
2023-05-21T21:54:16.082Z,16.38
2023-05-21T21:59:12.361Z,17.83
2023-05-21T22:04:08.854Z,15.73
2023-05-21T22:09:05.634Z,16.55
2023-05-21T22:14:02.452Z,15.70
2023-05-21T22:18:58.964Z,16.70
2023-05-21T22:23:55.919Z,15.32
2023-05-21T22:28:52.167Z,14.35
2023-05-21T22:33:48.404Z,15.48
2023-05-21T22:38:44.735Z,17.48
2023-05-21T22:43:41.339Z,14.77
2023-05-21T22:48:37.690Z,13.85
2023-05-21T22:53:34.077Z,14.52
2023-05-21T22:58:30.377Z,13.70
2023-05-21T23:03:26.693Z,13.40
2023-05-21T23:08:23.022Z,14.10
2023-05-21T23:13:19.363Z,14.50
2023-05-21T23:18:16.398Z,14.18
2023-05-21T23:23:12.774Z,13.93
2023-05-21T23:28:09.057Z,15.57
2023-05-21T23:33:05.655Z,15.05
2023-05-21T23:38:02.044Z,15.75
2023-05-21T23:42:58.336Z,14.60
2023-05-21T23:47:54.700Z,15.38
2023-05-21T23:52:51.115Z,15.05
2023-05-21T23:57:47.395Z,13.90
